sensor_id;sensor_type;location;lat;lon;timestamp;temperature;humidity
20233;DHT22;37438;55.674;13.074;2023-07-31T00:02:51;16.80;99.90
20233;DHT22;37438;55.674;13.074;2023-07-31T00:05:56;16.70;99.90
20233;DHT22;37438;55.674;13.074;2023-07-31T00:09:00;16.70;99.90
20233;DHT22;37438;55.674;13.074;2023-07-31T00:12:06;16.70;99.90
20233;DHT22;37438;55.674;13.074;2023-07-31T00:15:11;16.80;99.90
20233;DHT22;37438;55.674;13.074;2023-07-31T00:18:15;16.70;99.90
20233;DHT22;37438;55.674;13.074;2023-07-31T00:21:19;16.60;99.90
20233;DHT22;37438;55.674;13.074;2023-07-31T00:24:24;16.60;99.90
20233;DHT22;37438;55.674;13.074;2023-07-31T00:27:28;16.60;99.90
20233;DHT22;37438;55.674;13.074;2023-07-31T00:30:32;16.60;99.90
20233;DHT22;37438;55.674;13.074;2023-07-31T00:33:37;16.70;99.90
20233;DHT22;37438;55.674;13.074;2023-07-31T00:36:42;16.70;99.90
20233;DHT22;37438;55.674;13.074;2023-07-31T00:39:46;16.60;99.90
20233;DHT22;37438;55.674;13.074;2023-07-31T00:42:50;16.60;99.90
20233;DHT22;37438;55.674;13.074;2023-07-31T00:45:54;16.60;99.90
20233;DHT22;37438;55.674;13.074;2023-07-31T00:48:59;16.60;99.90
20233;DHT22;37438;55.674;13.074;2023-07-31T00:52:03;16.60;99.90
20233;DHT22;37438;55.674;13.074;2023-07-31T00:55:07;16.70;99.90
20233;DHT22;37438;55.674;13.074;2023-07-31T00:58:12;16.70;99.90
20233;DHT22;37438;55.674;13.074;2023-07-31T01:01:16;16.60;99.90
20233;DHT22;37438;55.674;13.074;2023-07-31T01:04:21;16.70;99.90
20233;DHT22;37438;55.674;13.074;2023-07-31T01:10:31;16.60;99.90
20233;DHT22;37438;55.674;13.074;2023-07-31T01:13:39;16.60;99.90
20233;DHT22;37438;55.674;13.074;2023-07-31T01:16:43;16.60;99.90
20233;DHT22;37438;55.674;13.074;2023-07-31T01:19:49;16.60;99.90
20233;DHT22;37438;55.674;13.074;2023-07-31T01:26:21;16.70;99.90
20233;DHT22;37438;55.674;13.074;2023-07-31T01:29:28;16.70;99.90
20233;DHT22;37438;55.674;13.074;2023-07-31T01:32:37;16.80;99.90
20233;DHT22;37438;55.674;13.074;2023-07-31T01:35:44;16.80;99.90
20233;DHT22;37438;55.674;13.074;2023-07-31T01:38:49;16.90;99.90
20233;DHT22;37438;55.674;13.074;2023-07-31T01:41:54;16.90;99.90
20233;DHT22;37438;55.674;13.074;2023-07-31T01:44:59;16.80;99.90
20233;DHT22;37438;55.674;13.074;2023-07-31T01:48:03;16.90;99.90
20233;DHT22;37438;55.674;13.074;2023-07-31T01:51:07;16.90;99.90
20233;DHT22;37438;55.674;13.074;2023-07-31T01:54:12;16.80;99.90
20233;DHT22;37438;55.674;13.074;2023-07-31T01:57:17;16.90;99.90
20233;DHT22;37438;55.674;13.074;2023-07-31T02:00:21;16.80;99.90
20233;DHT22;37438;55.674;13.074;2023-07-31T02:03:25;16.80;99.90
20233;DHT22;37438;55.674;13.074;2023-07-31T02:06:29;16.90;99.90
20233;DHT22;37438;55.674;13.074;2023-07-31T02:09:34;16.90;99.90
20233;DHT22;37438;55.674;13.074;2023-07-31T02:12:39;17.00;99.90
20233;DHT22;37438;55.674;13.074;2023-07-31T02:15:44;16.80;99.90
20233;DHT22;37438;55.674;13.074;2023-07-31T02:18:49;16.90;99.90
20233;DHT22;37438;55.674;13.074;2023-07-31T02:21:53;16.90;99.90
20233;DHT22;37438;55.674;13.074;2023-07-31T02:24:59;16.90;99.90
20233;DHT22;37438;55.674;13.074;2023-07-31T02:28:03;17.00;99.90
20233;DHT22;37438;55.674;13.074;2023-07-31T02:31:07;17.00;99.90
20233;DHT22;37438;55.674;13.074;2023-07-31T02:34:11;17.00;99.90
20233;DHT22;37438;55.674;13.074;2023-07-31T02:37:15;17.00;99.90
20233;DHT22;37438;55.674;13.074;2023-07-31T02:40:19;17.00;99.90
20233;DHT22;37438;55.674;13.074;2023-07-31T02:43:24;17.00;99.90
20233;DHT22;37438;55.674;13.074;2023-07-31T02:46:28;17.00;99.90
20233;DHT22;37438;55.674;13.074;2023-07-31T02:49:32;16.90;99.90
20233;DHT22;37438;55.674;13.074;2023-07-31T02:52:36;16.90;99.90
20233;DHT22;37438;55.674;13.074;2023-07-31T02:55:40;16.90;99.90
20233;DHT22;37438;55.674;13.074;2023-07-31T02:58:45;17.00;99.90
20233;DHT22;37438;55.674;13.074;2023-07-31T03:01:50;16.90;99.90
20233;DHT22;37438;55.674;13.074;2023-07-31T03:04:54;17.10;99.90
20233;DHT22;37438;55.674;13.074;2023-07-31T03:07:58;17.00;99.90
20233;DHT22;37438;55.674;13.074;2023-07-31T03:11:02;16.90;99.90
20233;DHT22;37438;55.674;13.074;2023-07-31T03:14:07;16.90;99.90
20233;DHT22;37438;55.674;13.074;2023-07-31T03:17:11;16.90;99.90
20233;DHT22;37438;55.674;13.074;2023-07-31T03:20:15;16.80;99.90
20233;DHT22;37438;55.674;13.074;2023-07-31T03:23:23;16.90;99.90
20233;DHT22;37438;55.674;13.074;2023-07-31T03:26:30;16.80;99.90
20233;DHT22;37438;55.674;13.074;2023-07-31T03:29:35;16.80;99.90
20233;DHT22;37438;55.674;13.074;2023-07-31T03:32:40;16.90;99.90
20233;DHT22;37438;55.674;13.074;2023-07-31T03:35:44;16.90;99.90
20233;DHT22;37438;55.674;13.074;2023-07-31T03:38:50;16.90;99.90
20233;DHT22;37438;55.674;13.074;2023-07-31T03:41:55;17.00;99.90
20233;DHT22;37438;55.674;13.074;2023-07-31T03:44:59;17.10;99.90
20233;DHT22;37438;55.674;13.074;2023-07-31T03:48:03;17.10;99.90
20233;DHT22;37438;55.674;13.074;2023-07-31T03:51:08;17.20;99.90
20233;DHT22;37438;55.674;13.074;2023-07-31T03:54:13;17.20;99.90
20233;DHT22;37438;55.674;13.074;2023-07-31T03:57:18;17.20;99.90
20233;DHT22;37438;55.674;13.074;2023-07-31T04:00:22;17.30;99.90
20233;DHT22;37438;55.674;13.074;2023-07-31T04:03:27;17.30;99.90
20233;DHT22;37438;55.674;13.074;2023-07-31T04:06:31;17.20;99.90
20233;DHT22;37438;55.674;13.074;2023-07-31T04:09:36;17.30;99.90
20233;DHT22;37438;55.674;13.074;2023-07-31T04:12:40;17.30;99.90
20233;DHT22;37438;55.674;13.074;2023-07-31T04:15:48;17.30;99.90
20233;DHT22;37438;55.674;13.074;2023-07-31T04:18:53;17.40;99.90
20233;DHT22;37438;55.674;13.074;2023-07-31T04:21:57;17.50;99.90
20233;DHT22;37438;55.674;13.074;2023-07-31T04:25:02;17.50;99.90
20233;DHT22;37438;55.674;13.074;2023-07-31T04:28:06;17.70;99.90
20233;DHT22;37438;55.674;13.074;2023-07-31T04:31:12;17.60;99.90
20233;DHT22;37438;55.674;13.074;2023-07-31T04:34:16;17.60;99.90
20233;DHT22;37438;55.674;13.074;2023-07-31T04:37:21;17.70;99.90
20233;DHT22;37438;55.674;13.074;2023-07-31T04:40:25;17.80;99.90
20233;DHT22;37438;55.674;13.074;2023-07-31T04:43:30;17.60;99.90
20233;DHT22;37438;55.674;13.074;2023-07-31T04:46:34;17.60;99.90
20233;DHT22;37438;55.674;13.074;2023-07-31T04:49:39;17.60;99.90
20233;DHT22;37438;55.674;13.074;2023-07-31T04:52:43;17.60;99.90
20233;DHT22;37438;55.674;13.074;2023-07-31T04:55:47;17.60;99.90
20233;DHT22;37438;55.674;13.074;2023-07-31T04:58:52;17.70;99.90
20233;DHT22;37438;55.674;13.074;2023-07-31T05:01:56;17.60;99.90
20233;DHT22;37438;55.674;13.074;2023-07-31T05:05:00;17.50;99.90
20233;DHT22;37438;55.674;13.074;2023-07-31T05:08:05;17.60;99.90
20233;DHT22;37438;55.674;13.074;2023-07-31T05:11:09;17.60;99.90
20233;DHT22;37438;55.674;13.074;2023-07-31T05:14:13;17.60;99.90
20233;DHT22;37438;55.674;13.074;2023-07-31T05:17:18;17.60;99.90
20233;DHT22;37438;55.674;13.074;2023-07-31T05:20:22;17.60;99.90
20233;DHT22;37438;55.674;13.074;2023-07-31T05:23:26;17.60;99.90
20233;DHT22;37438;55.674;13.074;2023-07-31T05:26:30;17.60;99.90
20233;DHT22;37438;55.674;13.074;2023-07-31T05:29:34;17.60;99.90
20233;DHT22;37438;55.674;13.074;2023-07-31T05:32:39;17.70;99.90
20233;DHT22;37438;55.674;13.074;2023-07-31T05:35:43;17.70;99.90
20233;DHT22;37438;55.674;13.074;2023-07-31T05:38:49;17.80;99.90
20233;DHT22;37438;55.674;13.074;2023-07-31T05:41:53;17.70;99.90
20233;DHT22;37438;55.674;13.074;2023-07-31T05:44:57;17.80;99.90
20233;DHT22;37438;55.674;13.074;2023-07-31T05:48:01;17.80;99.90
20233;DHT22;37438;55.674;13.074;2023-07-31T05:51:06;17.90;99.90
20233;DHT22;37438;55.674;13.074;2023-07-31T05:54:11;18.10;99.90
20233;DHT22;37438;55.674;13.074;2023-07-31T05:57:15;18.00;99.90
20233;DHT22;37438;55.674;13.074;2023-07-31T06:00:19;18.00;99.90
20233;DHT22;37438;55.674;13.074;2023-07-31T06:03:25;18.00;99.90
20233;DHT22;37438;55.674;13.074;2023-07-31T06:06:30;18.10;99.90
20233;DHT22;37438;55.674;13.074;2023-07-31T06:09:34;18.10;99.90
20233;DHT22;37438;55.674;13.074;2023-07-31T06:12:38;18.10;99.90
20233;DHT22;37438;55.674;13.074;2023-07-31T06:15:42;18.10;99.90
20233;DHT22;37438;55.674;13.074;2023-07-31T06:18:46;18.00;99.90
20233;DHT22;37438;55.674;13.074;2023-07-31T06:21:50;18.00;99.90
20233;DHT22;37438;55.674;13.074;2023-07-31T06:24:55;17.90;99.90
20233;DHT22;37438;55.674;13.074;2023-07-31T06:27:59;18.10;99.90
20233;DHT22;37438;55.674;13.074;2023-07-31T06:31:03;18.20;99.90
20233;DHT22;37438;55.674;13.074;2023-07-31T06:34:07;18.00;99.90
20233;DHT22;37438;55.674;13.074;2023-07-31T06:37:12;18.20;99.90
20233;DHT22;37438;55.674;13.074;2023-07-31T06:40:16;18.50;99.90
20233;DHT22;37438;55.674;13.074;2023-07-31T06:43:21;18.80;99.90
20233;DHT22;37438;55.674;13.074;2023-07-31T06:46:25;18.60;99.90
20233;DHT22;37438;55.674;13.074;2023-07-31T06:49:29;18.60;99.90
20233;DHT22;37438;55.674;13.074;2023-07-31T06:52:34;18.40;99.90
20233;DHT22;37438;55.674;13.074;2023-07-31T06:55:38;18.40;99.90
20233;DHT22;37438;55.674;13.074;2023-07-31T06:58:42;18.40;99.90
20233;DHT22;37438;55.674;13.074;2023-07-31T07:01:46;18.40;99.90
20233;DHT22;37438;55.674;13.074;2023-07-31T07:04:50;18.50;99.90
20233;DHT22;37438;55.674;13.074;2023-07-31T07:08:07;18.40;99.90
20233;DHT22;37438;55.674;13.074;2023-07-31T07:11:12;18.70;99.90
20233;DHT22;37438;55.674;13.074;2023-07-31T07:14:16;18.60;99.90
20233;DHT22;37438;55.674;13.074;2023-07-31T07:17:20;18.30;99.90
20233;DHT22;37438;55.674;13.074;2023-07-31T07:20:25;18.10;99.90
20233;DHT22;37438;55.674;13.074;2023-07-31T07:23:29;18.40;99.90
20233;DHT22;37438;55.674;13.074;2023-07-31T07:26:34;18.70;99.90
20233;DHT22;37438;55.674;13.074;2023-07-31T07:29:38;18.60;99.90
20233;DHT22;37438;55.674;13.074;2023-07-31T07:32:43;18.50;99.90
20233;DHT22;37438;55.674;13.074;2023-07-31T07:35:48;18.40;99.90
20233;DHT22;37438;55.674;13.074;2023-07-31T07:38:53;18.40;99.90
20233;DHT22;37438;55.674;13.074;2023-07-31T07:41:57;18.60;99.90
20233;DHT22;37438;55.674;13.074;2023-07-31T07:45:01;18.50;99.90
20233;DHT22;37438;55.674;13.074;2023-07-31T07:48:05;18.60;99.90
20233;DHT22;37438;55.674;13.074;2023-07-31T07:51:09;18.50;99.90
20233;DHT22;37438;55.674;13.074;2023-07-31T07:54:13;18.20;99.90
20233;DHT22;37438;55.674;13.074;2023-07-31T07:57:18;18.50;99.90
20233;DHT22;37438;55.674;13.074;2023-07-31T08:00:24;18.30;99.90
20233;DHT22;37438;55.674;13.074;2023-07-31T08:03:30;18.70;99.90
20233;DHT22;37438;55.674;13.074;2023-07-31T08:06:34;18.70;99.90
20233;DHT22;37438;55.674;13.074;2023-07-31T08:09:39;18.50;99.90
20233;DHT22;37438;55.674;13.074;2023-07-31T08:12:43;18.50;99.90
20233;DHT22;37438;55.674;13.074;2023-07-31T08:15:47;18.40;99.90
20233;DHT22;37438;55.674;13.074;2023-07-31T08:18:51;18.40;99.90
20233;DHT22;37438;55.674;13.074;2023-07-31T08:21:56;18.40;99.90
20233;DHT22;37438;55.674;13.074;2023-07-31T08:25:01;18.40;99.90
20233;DHT22;37438;55.674;13.074;2023-07-31T08:28:06;18.30;99.90
20233;DHT22;37438;55.674;13.074;2023-07-31T08:31:10;18.20;99.90
20233;DHT22;37438;55.674;13.074;2023-07-31T08:34:15;18.10;99.90
20233;DHT22;37438;55.674;13.074;2023-07-31T08:37:19;18.20;99.90
20233;DHT22;37438;55.674;13.074;2023-07-31T08:40:23;18.10;99.90
20233;DHT22;37438;55.674;13.074;2023-07-31T08:43:28;18.30;99.90
20233;DHT22;37438;55.674;13.074;2023-07-31T08:46:33;18.20;99.90
20233;DHT22;37438;55.674;13.074;2023-07-31T08:49:37;18.30;99.90
20233;DHT22;37438;55.674;13.074;2023-07-31T08:52:43;18.30;99.90
20233;DHT22;37438;55.674;13.074;2023-07-31T08:55:48;18.20;99.90
20233;DHT22;37438;55.674;13.074;2023-07-31T08:58:52;19.10;99.90
20233;DHT22;37438;55.674;13.074;2023-07-31T09:01:59;18.70;99.90
20233;DHT22;37438;55.674;13.074;2023-07-31T09:05:06;19.20;99.90
20233;DHT22;37438;55.674;13.074;2023-07-31T09:08:11;19.20;99.90
20233;DHT22;37438;55.674;13.074;2023-07-31T09:11:16;19.10;99.90
20233;DHT22;37438;55.674;13.074;2023-07-31T09:14:21;19.20;99.90
20233;DHT22;37438;55.674;13.074;2023-07-31T09:17:32;19.30;99.90
20233;DHT22;37438;55.674;13.074;2023-07-31T09:20:37;20.00;99.90
20233;DHT22;37438;55.674;13.074;2023-07-31T09:23:47;20.30;99.90
20233;DHT22;37438;55.674;13.074;2023-07-31T09:26:54;19.60;99.90
20233;DHT22;37438;55.674;13.074;2023-07-31T09:29:59;19.70;99.90
20233;DHT22;37438;55.674;13.074;2023-07-31T09:33:06;20.50;99.90
20233;DHT22;37438;55.674;13.074;2023-07-31T09:36:11;20.40;99.90
20233;DHT22;37438;55.674;13.074;2023-07-31T09:39:17;21.40;99.90
20233;DHT22;37438;55.674;13.074;2023-07-31T09:42:25;21.10;99.90
20233;DHT22;37438;55.674;13.074;2023-07-31T09:45:34;20.90;99.90
20233;DHT22;37438;55.674;13.074;2023-07-31T09:48:45;20.70;49.80
20233;DHT22;37438;55.674;13.074;2023-07-31T09:51:49;20.70;99.90
20233;DHT22;37438;55.674;13.074;2023-07-31T09:54:54;21.50;99.90
20233;DHT22;37438;55.674;13.074;2023-07-31T09:57:58;21.10;1.00
20233;DHT22;37438;55.674;13.074;2023-07-31T10:01:03;21.80;99.90
20233;DHT22;37438;55.674;13.074;2023-07-31T10:04:08;21.50;1.00
20233;DHT22;37438;55.674;13.074;2023-07-31T10:07:13;22.10;99.90
20233;DHT22;37438;55.674;13.074;2023-07-31T10:10:21;22.70;99.90
20233;DHT22;37438;55.674;13.074;2023-07-31T10:13:25;21.20;99.90
20233;DHT22;37438;55.674;13.074;2023-07-31T10:16:31;20.70;99.90
20233;DHT22;37438;55.674;13.074;2023-07-31T10:19:36;21.90;70.30
20233;DHT22;37438;55.674;13.074;2023-07-31T10:22:40;22.40;1.00
20233;DHT22;37438;55.674;13.074;2023-07-31T10:25:45;21.80;99.90
20233;DHT22;37438;55.674;13.074;2023-07-31T10:28:49;22.40;1.00
20233;DHT22;37438;55.674;13.074;2023-07-31T10:31:54;23.30;99.90
20233;DHT22;37438;55.674;13.074;2023-07-31T10:35:01;23.00;39.80
20233;DHT22;37438;55.674;13.074;2023-07-31T10:38:10;22.00;61.00
20233;DHT22;37438;55.674;13.074;2023-07-31T10:41:15;21.50;99.90
20233;DHT22;37438;55.674;13.074;2023-07-31T10:44:20;20.90;99.90
20233;DHT22;37438;55.674;13.074;2023-07-31T10:47:26;20.50;99.90
20233;DHT22;37438;55.674;13.074;2023-07-31T10:50:31;20.70;1.00
20233;DHT22;37438;55.674;13.074;2023-07-31T10:53:38;20.40;99.90
20233;DHT22;37438;55.674;13.074;2023-07-31T10:56:46;20.30;67.40
20233;DHT22;37438;55.674;13.074;2023-07-31T10:59:57;20.20;99.90
20233;DHT22;37438;55.674;13.074;2023-07-31T11:03:18;19.80;99.90
20233;DHT22;37438;55.674;13.074;2023-07-31T11:06:23;20.20;99.90
20233;DHT22;37438;55.674;13.074;2023-07-31T11:09:27;20.50;1.00
20233;DHT22;37438;55.674;13.074;2023-07-31T11:12:33;20.30;99.00
20233;DHT22;37438;55.674;13.074;2023-07-31T11:15:38;20.30;1.00
20233;DHT22;37438;55.674;13.074;2023-07-31T11:18:43;19.90;1.00
20233;DHT22;37438;55.674;13.074;2023-07-31T11:21:47;20.80;91.30
20233;DHT22;37438;55.674;13.074;2023-07-31T11:24:52;20.50;99.90
20233;DHT22;37438;55.674;13.074;2023-07-31T11:27:56;20.80;99.90
20233;DHT22;37438;55.674;13.074;2023-07-31T11:31:01;21.50;99.90
20233;DHT22;37438;55.674;13.074;2023-07-31T11:34:06;22.40;99.90
20233;DHT22;37438;55.674;13.074;2023-07-31T11:37:11;21.90;1.00
20233;DHT22;37438;55.674;13.074;2023-07-31T11:40:15;21.40;99.90
20233;DHT22;37438;55.674;13.074;2023-07-31T11:43:19;20.30;99.90
20233;DHT22;37438;55.674;13.074;2023-07-31T11:46:24;20.20;56.50
20233;DHT22;37438;55.674;13.074;2023-07-31T11:49:29;19.90;99.90
20233;DHT22;37438;55.674;13.074;2023-07-31T11:52:35;19.80;99.90
20233;DHT22;37438;55.674;13.074;2023-07-31T11:55:40;19.60;99.90
20233;DHT22;37438;55.674;13.074;2023-07-31T11:58:46;19.50;99.70
20233;DHT22;37438;55.674;13.074;2023-07-31T12:01:50;19.60;1.00
20233;DHT22;37438;55.674;13.074;2023-07-31T12:04:57;19.30;23.70
20233;DHT22;37438;55.674;13.074;2023-07-31T12:08:01;19.30;99.90
20233;DHT22;37438;55.674;13.074;2023-07-31T12:11:12;19.30;99.90
20233;DHT22;37438;55.674;13.074;2023-07-31T12:14:20;18.70;99.90
20233;DHT22;37438;55.674;13.074;2023-07-31T12:17:25;18.70;99.90
20233;DHT22;37438;55.674;13.074;2023-07-31T12:20:30;18.80;99.90
20233;DHT22;37438;55.674;13.074;2023-07-31T12:23:35;18.80;99.90
20233;DHT22;37438;55.674;13.074;2023-07-31T12:26:40;18.50;99.90
20233;DHT22;37438;55.674;13.074;2023-07-31T12:29:45;19.00;99.90
20233;DHT22;37438;55.674;13.074;2023-07-31T12:32:49;19.10;99.90
20233;DHT22;37438;55.674;13.074;2023-07-31T12:35:54;19.30;99.90
20233;DHT22;37438;55.674;13.074;2023-07-31T12:38:58;19.40;99.90
20233;DHT22;37438;55.674;13.074;2023-07-31T12:42:02;19.50;99.90
20233;DHT22;37438;55.674;13.074;2023-07-31T12:45:07;19.40;99.90
20233;DHT22;37438;55.674;13.074;2023-07-31T12:48:11;19.50;99.90
20233;DHT22;37438;55.674;13.074;2023-07-31T12:51:15;19.80;99.90
20233;DHT22;37438;55.674;13.074;2023-07-31T12:54:20;20.30;99.90
20233;DHT22;37438;55.674;13.074;2023-07-31T12:57:24;20.60;99.90
20233;DHT22;37438;55.674;13.074;2023-07-31T13:00:28;20.20;99.90
20233;DHT22;37438;55.674;13.074;2023-07-31T13:03:32;19.90;99.90
20233;DHT22;37438;55.674;13.074;2023-07-31T13:06:37;19.30;99.90
20233;DHT22;37438;55.674;13.074;2023-07-31T13:09:42;19.00;99.90
20233;DHT22;37438;55.674;13.074;2023-07-31T13:12:47;18.50;99.90
20233;DHT22;37438;55.674;13.074;2023-07-31T13:15:51;18.40;99.90
20233;DHT22;37438;55.674;13.074;2023-07-31T13:18:56;18.30;99.90
20233;DHT22;37438;55.674;13.074;2023-07-31T13:22:00;18.40;99.90
20233;DHT22;37438;55.674;13.074;2023-07-31T13:25:04;18.40;99.90
20233;DHT22;37438;55.674;13.074;2023-07-31T13:28:09;18.20;99.90
20233;DHT22;37438;55.674;13.074;2023-07-31T13:31:13;18.00;99.90
20233;DHT22;37438;55.674;13.074;2023-07-31T13:34:18;19.10;99.90
20233;DHT22;37438;55.674;13.074;2023-07-31T13:37:22;20.00;99.90
20233;DHT22;37438;55.674;13.074;2023-07-31T13:40:27;20.50;99.90
20233;DHT22;37438;55.674;13.074;2023-07-31T13:43:31;19.80;99.90
20233;DHT22;37438;55.674;13.074;2023-07-31T13:46:34;20.40;99.90
20233;DHT22;37438;55.674;13.074;2023-07-31T13:49:40;20.10;99.90
20233;DHT22;37438;55.674;13.074;2023-07-31T13:52:45;20.70;99.90
20233;DHT22;37438;55.674;13.074;2023-07-31T13:55:50;20.80;99.90
20233;DHT22;37438;55.674;13.074;2023-07-31T13:58:54;21.30;99.90
20233;DHT22;37438;55.674;13.074;2023-07-31T14:01:58;21.60;99.90
20233;DHT22;37438;55.674;13.074;2023-07-31T14:05:02;21.40;99.90
20233;DHT22;37438;55.674;13.074;2023-07-31T14:08:07;21.40;99.90
20233;DHT22;37438;55.674;13.074;2023-07-31T14:11:11;21.30;99.90
20233;DHT22;37438;55.674;13.074;2023-07-31T14:14:15;21.20;99.90
20233;DHT22;37438;55.674;13.074;2023-07-31T14:17:21;21.10;99.90
20233;DHT22;37438;55.674;13.074;2023-07-31T14:20:26;21.30;99.90
20233;DHT22;37438;55.674;13.074;2023-07-31T14:23:30;21.40;99.90
20233;DHT22;37438;55.674;13.074;2023-07-31T14:26:34;21.60;99.90
20233;DHT22;37438;55.674;13.074;2023-07-31T14:29:39;21.70;99.90
20233;DHT22;37438;55.674;13.074;2023-07-31T14:32:44;21.70;99.90
20233;DHT22;37438;55.674;13.074;2023-07-31T14:35:48;21.90;99.90
20233;DHT22;37438;55.674;13.074;2023-07-31T14:38:52;23.00;99.90
20233;DHT22;37438;55.674;13.074;2023-07-31T14:41:56;22.60;99.90
20233;DHT22;37438;55.674;13.074;2023-07-31T14:45:01;23.60;99.90
20233;DHT22;37438;55.674;13.074;2023-07-31T14:48:05;24.80;99.90
20233;DHT22;37438;55.674;13.074;2023-07-31T14:51:09;23.20;99.90
20233;DHT22;37438;55.674;13.074;2023-07-31T14:54:13;23.30;99.90
20233;DHT22;37438;55.674;13.074;2023-07-31T14:57:18;24.00;99.90
20233;DHT22;37438;55.674;13.074;2023-07-31T15:00:22;23.30;99.90
20233;DHT22;37438;55.674;13.074;2023-07-31T15:03:28;23.00;99.90
20233;DHT22;37438;55.674;13.074;2023-07-31T15:06:35;23.30;99.90
20233;DHT22;37438;55.674;13.074;2023-07-31T15:09:39;23.30;99.90
20233;DHT22;37438;55.674;13.074;2023-07-31T15:12:43;23.00;99.90
20233;DHT22;37438;55.674;13.074;2023-07-31T15:15:48;22.70;99.90
20233;DHT22;37438;55.674;13.074;2023-07-31T15:18:52;22.70;99.90
20233;DHT22;37438;55.674;13.074;2023-07-31T15:21:57;22.50;99.90
20233;DHT22;37438;55.674;13.074;2023-07-31T15:25:01;22.90;99.90
20233;DHT22;37438;55.674;13.074;2023-07-31T15:28:05;23.40;99.90
20233;DHT22;37438;55.674;13.074;2023-07-31T15:31:11;22.90;99.90
20233;DHT22;37438;55.674;13.074;2023-07-31T15:34:18;22.70;99.90
20233;DHT22;37438;55.674;13.074;2023-07-31T15:37:23;22.80;99.90
20233;DHT22;37438;55.674;13.074;2023-07-31T15:40:32;23.50;99.90
20233;DHT22;37438;55.674;13.074;2023-07-31T15:43:36;23.50;99.90
20233;DHT22;37438;55.674;13.074;2023-07-31T15:46:41;24.20;99.90
20233;DHT22;37438;55.674;13.074;2023-07-31T15:49:46;24.40;99.90
20233;DHT22;37438;55.674;13.074;2023-07-31T15:52:51;24.40;99.90
20233;DHT22;37438;55.674;13.074;2023-07-31T15:55:56;23.80;99.90
20233;DHT22;37438;55.674;13.074;2023-07-31T15:59:01;23.80;99.90
20233;DHT22;37438;55.674;13.074;2023-07-31T16:02:05;23.50;99.90
20233;DHT22;37438;55.674;13.074;2023-07-31T16:05:12;23.00;99.90
20233;DHT22;37438;55.674;13.074;2023-07-31T16:08:16;23.10;99.90
20233;DHT22;37438;55.674;13.074;2023-07-31T16:11:20;22.60;99.90
20233;DHT22;37438;55.674;13.074;2023-07-31T16:14:24;21.70;99.90
20233;DHT22;37438;55.674;13.074;2023-07-31T16:17:28;21.30;99.90
20233;DHT22;37438;55.674;13.074;2023-07-31T16:20:34;21.50;99.90
20233;DHT22;37438;55.674;13.074;2023-07-31T16:23:38;21.50;99.90
20233;DHT22;37438;55.674;13.074;2023-07-31T16:26:42;21.40;99.90
20233;DHT22;37438;55.674;13.074;2023-07-31T16:29:47;21.40;99.90
20233;DHT22;37438;55.674;13.074;2023-07-31T16:32:51;21.50;99.90
20233;DHT22;37438;55.674;13.074;2023-07-31T16:35:56;21.30;99.90
20233;DHT22;37438;55.674;13.074;2023-07-31T16:39:00;21.00;99.90
20233;DHT22;37438;55.674;13.074;2023-07-31T16:42:05;21.00;99.90
20233;DHT22;37438;55.674;13.074;2023-07-31T16:45:09;20.90;99.90
20233;DHT22;37438;55.674;13.074;2023-07-31T16:48:14;20.40;99.90
20233;DHT22;37438;55.674;13.074;2023-07-31T16:51:19;20.10;99.90
20233;DHT22;37438;55.674;13.074;2023-07-31T16:54:24;19.90;99.90
20233;DHT22;37438;55.674;13.074;2023-07-31T16:57:29;19.60;99.90
20233;DHT22;37438;55.674;13.074;2023-07-31T17:00:33;19.70;99.90
20233;DHT22;37438;55.674;13.074;2023-07-31T17:03:37;19.40;99.90
20233;DHT22;37438;55.674;13.074;2023-07-31T17:06:43;19.20;99.90
20233;DHT22;37438;55.674;13.074;2023-07-31T17:09:49;19.10;99.90
20233;DHT22;37438;55.674;13.074;2023-07-31T17:12:54;18.80;99.90
20233;DHT22;37438;55.674;13.074;2023-07-31T17:15:58;18.60;99.90
20233;DHT22;37438;55.674;13.074;2023-07-31T17:19:03;18.40;99.90
20233;DHT22;37438;55.674;13.074;2023-07-31T17:22:08;18.30;99.90
20233;DHT22;37438;55.674;13.074;2023-07-31T17:25:12;18.30;99.90
20233;DHT22;37438;55.674;13.074;2023-07-31T17:28:16;18.20;99.90
20233;DHT22;37438;55.674;13.074;2023-07-31T17:31:20;18.20;99.90
20233;DHT22;37438;55.674;13.074;2023-07-31T17:34:25;18.20;99.90
20233;DHT22;37438;55.674;13.074;2023-07-31T17:37:30;18.10;99.90
20233;DHT22;37438;55.674;13.074;2023-07-31T17:40:34;18.30;99.90
20233;DHT22;37438;55.674;13.074;2023-07-31T17:43:38;18.40;99.90
20233;DHT22;37438;55.674;13.074;2023-07-31T17:46:42;18.30;99.90
20233;DHT22;37438;55.674;13.074;2023-07-31T17:49:47;18.40;99.90
20233;DHT22;37438;55.674;13.074;2023-07-31T17:52:52;18.40;99.90
20233;DHT22;37438;55.674;13.074;2023-07-31T17:55:56;18.30;99.90
20233;DHT22;37438;55.674;13.074;2023-07-31T17:59:00;18.20;99.90
20233;DHT22;37438;55.674;13.074;2023-07-31T18:02:04;18.30;99.90
20233;DHT22;37438;55.674;13.074;2023-07-31T18:05:09;18.40;99.90
20233;DHT22;37438;55.674;13.074;2023-07-31T18:08:13;18.30;99.90
20233;DHT22;37438;55.674;13.074;2023-07-31T18:11:17;18.20;99.90
20233;DHT22;37438;55.674;13.074;2023-07-31T18:14:23;18.20;99.90
20233;DHT22;37438;55.674;13.074;2023-07-31T18:17:30;18.10;99.90
20233;DHT22;37438;55.674;13.074;2023-07-31T18:20:38;18.10;99.90
20233;DHT22;37438;55.674;13.074;2023-07-31T18:23:41;18.00;99.90
20233;DHT22;37438;55.674;13.074;2023-07-31T18:26:45;18.00;99.90
20233;DHT22;37438;55.674;13.074;2023-07-31T18:29:50;18.00;99.90
20233;DHT22;37438;55.674;13.074;2023-07-31T18:32:55;18.00;99.90
20233;DHT22;37438;55.674;13.074;2023-07-31T18:36:01;18.00;99.90
20233;DHT22;37438;55.674;13.074;2023-07-31T18:39:06;17.90;99.90
20233;DHT22;37438;55.674;13.074;2023-07-31T18:42:10;17.90;99.90
20233;DHT22;37438;55.674;13.074;2023-07-31T18:45:17;17.90;99.90
20233;DHT22;37438;55.674;13.074;2023-07-31T18:48:22;17.80;99.90
20233;DHT22;37438;55.674;13.074;2023-07-31T18:51:26;17.80;99.90
20233;DHT22;37438;55.674;13.074;2023-07-31T18:54:31;17.80;99.90
20233;DHT22;37438;55.674;13.074;2023-07-31T18:57:35;17.70;99.90
20233;DHT22;37438;55.674;13.074;2023-07-31T19:00:39;17.70;99.90
20233;DHT22;37438;55.674;13.074;2023-07-31T19:03:44;17.60;99.90
20233;DHT22;37438;55.674;13.074;2023-07-31T19:06:48;17.50;99.90
20233;DHT22;37438;55.674;13.074;2023-07-31T19:09:52;17.40;99.90
20233;DHT22;37438;55.674;13.074;2023-07-31T19:13:16;17.30;99.90
20233;DHT22;37438;55.674;13.074;2023-07-31T19:16:21;17.30;99.90
20233;DHT22;37438;55.674;13.074;2023-07-31T19:19:25;17.20;99.90